createdAt,value
2017-09-12T00:00:02.746Z,998.5
2017-09-12T00:05:03.462Z,998.48
2017-09-12T00:10:03.123Z,998.39
2017-09-12T00:15:03.500Z,998.39
2017-09-12T00:20:02.961Z,998.46
2017-09-12T00:25:03.545Z,998.48
2017-09-12T00:30:03.031Z,998.35
2017-09-12T00:35:03.436Z,998.55
2017-09-12T00:40:02.850Z,998.51
2017-09-12T00:45:03.388Z,998.63
2017-09-12T00:50:02.868Z,998.57
2017-09-12T00:55:03.434Z,998.76
2017-09-12T01:00:02.970Z,998.86
2017-09-12T01:05:03.561Z,998.86
2017-09-12T01:10:03.107Z,998.89
2017-09-12T01:15:03.530Z,999.08
2017-09-12T01:20:02.954Z,999.11
2017-09-12T01:25:03.338Z,999.18
2017-09-12T01:30:02.824Z,999.1
2017-09-12T01:35:03.222Z,999.2
2017-09-12T01:40:02.834Z,999.15
2017-09-12T01:45:03.203Z,999.1
2017-09-12T01:50:02.768Z,999.24
2017-09-12T01:55:03.339Z,999.17
2017-09-12T02:00:02.723Z,999.2
2017-09-12T02:05:03.230Z,999.3
2017-09-12T02:10:02.693Z,999.29
2017-09-12T02:15:03.231Z,999.41
2017-09-12T02:20:03.647Z,999.34
2017-09-12T02:25:03.249Z,999.4
2017-09-12T02:30:02.726Z,999.44
2017-09-12T02:35:03.181Z,999.39
2017-09-12T02:40:03.613Z,999.47
2017-09-12T02:45:03.072Z,999.45
2017-09-12T02:50:03.485Z,999.52
2017-09-12T02:55:02.926Z,999.64
2017-09-12T03:00:03.364Z,999.58
2017-09-12T03:05:02.808Z,999.6
2017-09-12T03:10:03.468Z,999.6
2017-09-12T03:15:02.898Z,999.67
2017-09-12T03:20:03.469Z,999.85
2017-09-12T03:25:02.878Z,999.86
2017-09-12T03:30:03.284Z,999.96
2017-09-12T03:35:02.783Z,999.86
2017-09-12T03:40:03.396Z,999.76
2017-09-12T03:45:02.792Z,999.88
2017-09-12T03:50:03.466Z,999.98
2017-09-12T03:55:03.002Z,1000.04
2017-09-12T04:00:03.649Z,1000.16
2017-09-12T04:05:03.020Z,1000.22
2017-09-12T04:10:03.425Z,1000.23
2017-09-12T04:15:02.806Z,1000.38
2017-09-12T04:20:03.296Z,1000.32
2017-09-12T04:25:02.692Z,1000.42
2017-09-12T04:30:03.139Z,1000.55
2017-09-12T04:35:03.437Z,1000.51
2017-09-12T04:40:02.938Z,1000.44
2017-09-12T04:45:03.394Z,1000.53
2017-09-12T04:50:02.778Z,1000.7
2017-09-12T04:55:03.282Z,1000.73
2017-09-12T05:00:02.700Z,1000.79
2017-09-12T05:05:03.176Z,1000.86
2017-09-12T05:10:02.770Z,1001.07
2017-09-12T05:15:03.252Z,1001.06
2017-09-12T05:20:02.897Z,1001.07
2017-09-12T05:25:03.421Z,1001.25
2017-09-12T05:30:02.929Z,1001.34
2017-09-12T05:35:03.364Z,1001.33
2017-09-12T05:40:02.853Z,1001.43
2017-09-12T05:45:03.221Z,1001.43
2017-09-12T05:50:03.552Z,1001.53
2017-09-12T05:55:03.223Z,1001.63
2017-09-12T06:00:02.678Z,1001.69
2017-09-12T06:05:03.219Z,1001.96
2017-09-12T06:10:02.849Z,1001.85
2017-09-12T06:15:03.300Z,1001.88
2017-09-12T06:20:02.770Z,1001.99
2017-09-12T06:25:03.342Z,1002.07
2017-09-12T06:30:02.761Z,1002.17
2017-09-12T06:35:03.352Z,1002.11
2017-09-12T06:40:02.862Z,1002.32
2017-09-12T06:45:03.458Z,1002.22
2017-09-12T06:50:02.883Z,1002.34
2017-09-12T06:55:03.430Z,1002.29
2017-09-12T07:00:02.776Z,1002.3
2017-09-12T07:05:03.256Z,1002.4
2017-09-12T07:10:02.741Z,1002.51
2017-09-12T07:15:03.313Z,1002.38
2017-09-12T07:20:02.951Z,1002.64
2017-09-12T07:25:03.474Z,1002.56
2017-09-12T07:30:02.935Z,1002.72
2017-09-12T07:35:03.338Z,1002.71
2017-09-12T07:40:02.847Z,1002.89
2017-09-12T07:45:03.419Z,1002.89
2017-09-12T07:50:02.845Z,1003.05
2017-09-12T07:55:03.335Z,1003.11
2017-09-12T08:00:02.885Z,1003.26
2017-09-12T08:05:03.372Z,1003.15
2017-09-12T08:10:02.858Z,1003.3
2017-09-12T08:15:03.454Z,1003.47
2017-09-12T08:20:02.975Z,1003.46
2017-09-12T08:25:03.521Z,1003.47
2017-09-12T08:30:02.968Z,1003.58
2017-09-12T08:35:03.382Z,1003.63
2017-09-12T08:40:02.799Z,1003.66
2017-09-12T08:45:03.376Z,1003.67
2017-09-12T08:50:02.931Z,1003.77
2017-09-12T08:55:03.437Z,1003.77
2017-09-12T09:00:02.825Z,1003.82
2017-09-12T09:05:03.354Z,1004
2017-09-12T09:10:02.838Z,1003.84
2017-09-12T09:15:03.357Z,1004.16
2017-09-12T09:20:02.865Z,1004.01
2017-09-12T09:25:03.297Z,1004.07
2017-09-12T09:30:02.859Z,1004.09
2017-09-12T09:35:03.574Z,1004.08
2017-09-12T09:40:03.129Z,1004.06
2017-09-12T09:45:03.506Z,1004.1
2017-09-12T09:50:02.889Z,1004.08
2017-09-12T09:55:03.285Z,1004.12
2017-09-12T10:00:02.879Z,1004.17
2017-09-12T10:05:03.295Z,1004.16
2017-09-12T10:10:02.909Z,1004.24
2017-09-12T10:15:03.296Z,1004.18
2017-09-12T10:20:02.779Z,1004.34
2017-09-12T10:25:03.299Z,1004.32
2017-09-12T10:30:02.766Z,1004.24
2017-09-12T10:35:03.368Z,1004.45
2017-09-12T10:40:02.914Z,1004.62
2017-09-12T10:45:03.340Z,1004.73
2017-09-12T10:50:03.013Z,1004.43
2017-09-12T10:55:03.463Z,1004.5
2017-09-12T11:00:02.963Z,1004.59
2017-09-12T11:05:03.502Z,1004.9
2017-09-12T11:10:02.969Z,1004.79
2017-09-12T11:15:03.360Z,1004.8
2017-09-12T11:20:02.840Z,1004.82
2017-09-12T11:25:03.246Z,1004.81
2017-09-12T11:30:02.679Z,1004.98
2017-09-12T11:35:03.145Z,1004.87
2017-09-12T11:40:03.550Z,1004.93
2017-09-12T11:45:02.907Z,1004.98
2017-09-12T11:50:03.419Z,1005.08
2017-09-12T11:55:02.954Z,1005.22
2017-09-12T12:00:03.464Z,1005.13
2017-09-12T12:05:03.030Z,1005.08
2017-09-12T12:10:02.694Z,1005.13
2017-09-12T12:15:03.457Z,1005.15
2017-09-12T12:20:02.919Z,1005.5
2017-09-12T12:25:03.460Z,1005.73
2017-09-12T12:30:02.962Z,1005.71
2017-09-12T12:35:03.388Z,1005.58
2017-09-12T12:40:02.818Z,1005.67
2017-09-12T12:45:03.284Z,1005.71
2017-09-12T12:50:02.769Z,1005.75
2017-09-12T12:55:03.185Z,1005.85
2017-09-12T13:00:03.615Z,1005.86
2017-09-12T13:05:03.267Z,1005.75
2017-09-12T13:10:02.692Z,1005.74
2017-09-12T13:15:03.125Z,1005.74
2017-09-12T13:20:03.610Z,1005.7
2017-09-12T13:25:03.099Z,1005.78
2017-09-12T13:30:03.620Z,1005.71
2017-09-12T13:35:03.102Z,1005.66
2017-09-12T13:40:03.531Z,1005.61
2017-09-12T13:45:02.996Z,1005.82
2017-09-12T13:50:03.527Z,1005.84
2017-09-12T13:55:03.048Z,1005.92
2017-09-12T14:00:03.617Z,1005.86
2017-09-12T14:05:03.238Z,1005.99
2017-09-12T14:10:02.806Z,1006.09
2017-09-12T14:15:03.416Z,1006.1
2017-09-12T14:20:02.966Z,1006
2017-09-12T14:25:03.544Z,1006.19
2017-09-12T14:30:02.931Z,1006.26
2017-09-12T14:35:03.471Z,1006.37
2017-09-12T14:40:02.920Z,1006.35
2017-09-12T14:45:03.495Z,1006.38
2017-09-12T14:50:03.239Z,1006.38
2017-09-12T14:55:03.595Z,1006.47
2017-09-12T15:00:03.043Z,1006.55
2017-09-12T15:05:03.599Z,1006.6
2017-09-12T15:10:03.175Z,1006.63
2017-09-12T15:15:02.829Z,1006.6
2017-09-12T15:20:03.293Z,1006.58
2017-09-12T15:25:02.734Z,1006.6
2017-09-12T15:30:03.221Z,1006.8
2017-09-12T15:35:02.899Z,1006.64
2017-09-12T15:40:03.519Z,1006.77
2017-09-12T15:45:02.986Z,1006.73
2017-09-12T15:50:03.630Z,1006.74
2017-09-12T15:55:03.045Z,1006.91
2017-09-12T16:00:03.425Z,1006.84
2017-09-12T16:05:02.815Z,1006.95
2017-09-12T16:10:03.345Z,1006.99
2017-09-12T16:15:02.862Z,1006.96
2017-09-12T16:20:03.263Z,1007.03
2017-09-12T16:25:02.758Z,1007.01
2017-09-12T16:30:03.141Z,1006.95
2017-09-12T16:35:02.716Z,1007.1
2017-09-12T16:40:03.318Z,1006.99
2017-09-12T16:45:02.728Z,1006.88
2017-09-12T16:50:03.147Z,1006.99
2017-09-12T16:55:03.616Z,1006.95
2017-09-12T17:00:03.150Z,1007.07
2017-09-12T17:05:02.768Z,1007.14
2017-09-12T17:10:03.293Z,1007.14
2017-09-12T17:15:02.786Z,1007.11
2017-09-12T17:20:08.273Z,1007.13
2017-09-12T17:25:02.842Z,1007.14
2017-09-12T17:30:03.308Z,1007.16
2017-09-12T17:35:02.908Z,1007.17
2017-09-12T17:40:03.462Z,1007.19
2017-09-12T17:45:02.882Z,1007.22
2017-09-12T17:50:03.304Z,1007.28
2017-09-12T17:55:02.734Z,1007.24
2017-09-12T18:00:03.231Z,1007.3
2017-09-12T18:05:02.796Z,1007.38
2017-09-12T18:10:03.348Z,1007.3
2017-09-12T18:15:02.801Z,1007.3
2017-09-12T18:20:03.402Z,1007.23
2017-09-12T18:25:02.879Z,1007.38
2017-09-12T18:30:03.293Z,1007.27
2017-09-12T18:35:02.870Z,1007.24
2017-09-12T18:40:03.411Z,1007.31
2017-09-12T18:45:02.806Z,1007.35
2017-09-12T18:55:02.910Z,1007.5
2017-09-12T19:00:03.423Z,1007.48
2017-09-12T19:05:03.038Z,1007.53
2017-09-12T19:10:03.644Z,1007.53
2017-09-12T19:15:03.023Z,1007.58
2017-09-12T19:20:03.678Z,1007.61
2017-09-12T19:25:03.091Z,1007.53
2017-09-12T19:30:03.640Z,1007.42
2017-09-12T19:35:03.088Z,1007.49
2017-09-12T19:40:02.646Z,1007.35
2017-09-12T19:45:03.229Z,1007.31
2017-09-12T19:50:03.620Z,1007.31
2017-09-12T19:55:03.042Z,1007.38
2017-09-12T20:00:03.468Z,1007.35
2017-09-12T20:10:02.809Z,1007.5
2017-09-12T20:15:03.260Z,1007.49
2017-09-12T20:20:02.713Z,1007.47
2017-09-12T20:25:03.220Z,1007.48
2017-09-12T20:30:03.634Z,1007.52
2017-09-12T20:35:03.030Z,1007.4
2017-09-12T20:40:03.623Z,1007.42
2017-09-12T20:45:03.037Z,1007.52
2017-09-12T20:50:03.534Z,1007.32
2017-09-12T20:55:03.025Z,1007.17
2017-09-12T21:00:03.724Z,1007.24
2017-09-12T21:05:03.129Z,1007.32
2017-09-12T21:10:03.615Z,1007.38
2017-09-12T21:15:02.997Z,1007.34
2017-09-12T21:20:03.587Z,1007.43
2017-09-12T21:25:02.988Z,1007.31
2017-09-12T21:30:03.796Z,1007.21
2017-09-12T21:35:03.206Z,1007.04
2017-09-12T21:40:02.679Z,1007.07
2017-09-12T21:45:03.328Z,1006.89
2017-09-12T21:50:02.786Z,1006.86
2017-09-12T21:55:03.194Z,1006.74
2017-09-12T22:00:02.718Z,1006.66
2017-09-12T22:05:03.296Z,1006.66
2017-09-12T22:10:02.879Z,1006.46
2017-09-12T22:15:03.300Z,1006.41
2017-09-12T22:20:02.813Z,1006.36
2017-09-12T22:25:03.279Z,1006.24
2017-09-12T22:30:02.750Z,1006.11
2017-09-12T22:35:03.171Z,1006.04
2017-09-12T22:40:02.670Z,1005.92
2017-09-12T22:45:03.096Z,1005.64
2017-09-12T22:50:03.648Z,1005.59
2017-09-12T22:55:03.174Z,1005.71
2017-09-12T23:00:04.029Z,1005.48
2017-09-12T23:05:03.050Z,1005.32
2017-09-12T23:10:02.640Z,1005.1
2017-09-12T23:15:03.186Z,1005.06
2017-09-12T23:20:03.626Z,1004.81
2017-09-12T23:25:03.022Z,1004.65
2017-09-12T23:30:03.627Z,1004.55
2017-09-12T23:35:03.135Z,1004.47
2017-09-12T23:40:02.621Z,1004.38
2017-09-12T23:45:03.149Z,1004
2017-09-12T23:50:02.702Z,1003.87
2017-09-12T23:55:03.241Z,1003.7
